This is the latest recevied weather packets stored in our database for station/object N3WMC. If no packets are shown the sender has not sent any weather packets the latest 10 day(s).
| Time | Temp. | Humidity | Pressure | Rain* | Wind** | Luminosity | Snow |
|---|---|---|---|---|---|---|---|
| 1787543921 | 16.11° C | 84% | 1015.3 hPa | 0 mm | - | 0 W/m² | - |
| 1787543617 | 15.56° C | 93% | 1015.4 hPa | 0 mm | - | 0 W/m² | - |
| 1787543313 | 16.11° C | 91% | 1014.5 hPa | 0 mm | - | 0 W/m² | - |
| 1787543008 | 16.11° C | 91% | 1014.6 hPa | 0 mm | - | 0 W/m² | - |
| 1787542702 | 16.11° C | 91% | 1014.5 hPa | 0 mm | - | 0 W/m² | - |
| 1787542398 | 16.11° C | 90% | 1014.6 hPa | 0 mm | - | 0 W/m² | - |
| 1787542094 | 16.11° C | 90% | 1014.4 hPa | 0 mm | - | 0 W/m² | - |
| 1787541791 | 16.67° C | 90% | 1014.5 hPa | 0 mm | - | 0 W/m² | - |
| 1787541486 | 16.67° C | 90% | 1014.4 hPa | 0 mm | - | 0 W/m² | - |
| 1787541183 | 16.67° C | 89% | 1014.6 hPa | 0 mm | - | 0 W/m² | - |
| 1787540879 | 16.67° C | 88% | 1014.6 hPa | 0 mm | - | 0 W/m² | - |
| 1787540575 | 16.67° C | 88% | 1014.5 hPa | 0 mm | - | 0 W/m² | - |
| 1787540272 | 16.67° C | 88% | 1014.6 hPa | 0 mm | - | 0 W/m² | - |
| 1787539969 | 16.67° C | 87% | 1014.5 hPa | 0 mm | - | 0 W/m² | - |
| 1787539664 | 16.67° C | 86% | 1014.8 hPa | 0 mm | - | 0 W/m² | - |
| 1787539363 | 16.67° C | 84% | 1014.6 hPa | 0 mm | - | 0 W/m² | - |
| 1787539059 | 17.22° C | 83% | 1014.7 hPa | 0 mm | - | 0 W/m² | - |
| 1787538756 | 16.11° C | 89% | 1014.6 hPa | 0 mm | - | 0 W/m² | - |
| 1787538452 | 16.11° C | 92% | 1014.6 hPa | 0 mm | - | 0 W/m² | - |
| 1787538147 | 15.56° C | 93% | 1014.4 hPa | 0 mm | - | 0 W/m² | - |
| 1787537843 | 15.56° C | 93% | 1014.4 hPa | 0 mm | - | 0 W/m² | - |
| 1787537540 | 15.56° C | 93% | 1014.2 hPa | 0 mm | - | 0 W/m² | - |
| 1787537235 | 15.56° C | 93% | 1014.5 hPa | 0 mm | - | 0 W/m² | - |
| 1787536934 | 15° C | 93% | 1014.3 hPa | 0 mm | - | 0 W/m² | - |
| 1787536634 | 15° C | 93% | 1014.3 hPa | 0 mm | - | 0 W/m² | - |
* Rain latest hour (hover to see other rain measurements)
** Current wind speed in m/s (hover to see current wind gust speed)